sensor_id;sensor_type;location;lat;lon;timestamp;P1;durP1;ratioP1;P2;durP2;ratioP2
10894;SDS011;5500;49.886;8.074;2023-04-15T00:01:42;2.77;;;1.80;;
10894;SDS011;5500;49.886;8.074;2023-04-15T00:04:10;5.33;;;2.17;;
10894;SDS011;5500;49.886;8.074;2023-04-15T00:06:39;4.87;;;1.97;;
10894;SDS011;5500;49.886;8.074;2023-04-15T00:09:07;2.37;;;1.90;;
10894;SDS011;5500;49.886;8.074;2023-04-15T00:11:35;3.17;;;1.80;;
10894;SDS011;5500;49.886;8.074;2023-04-15T00:14:02;3.27;;;1.93;;
10894;SDS011;5500;49.886;8.074;2023-04-15T00:16:31;4.60;;;2.20;;
10894;SDS011;5500;49.886;8.074;2023-04-15T00:18:59;4.70;;;2.23;;
10894;SDS011;5500;49.886;8.074;2023-04-15T00:21:27;3.73;;;2.17;;
10894;SDS011;5500;49.886;8.074;2023-04-15T00:23:56;3.93;;;1.90;;
10894;SDS011;5500;49.886;8.074;2023-04-15T00:26:23;6.37;;;2.10;;
10894;SDS011;5500;49.886;8.074;2023-04-15T00:28:51;4.77;;;2.17;;
10894;SDS011;5500;49.886;8.074;2023-04-15T00:31:19;3.73;;;2.00;;
10894;SDS011;5500;49.886;8.074;2023-04-15T00:33:49;4.30;;;1.87;;
10894;SDS011;5500;49.886;8.074;2023-04-15T00:36:17;5.33;;;2.20;;
10894;SDS011;5500;49.886;8.074;2023-04-15T00:38:45;5.40;;;2.50;;
10894;SDS011;5500;49.886;8.074;2023-04-15T00:41:14;5.37;;;1.83;;
10894;SDS011;5500;49.886;8.074;2023-04-15T00:43:43;5.07;;;1.77;;
10894;SDS011;5500;49.886;8.074;2023-04-15T00:46:11;3.23;;;1.77;;
10894;SDS011;5500;49.886;8.074;2023-04-15T00:48:39;4.20;;;1.73;;
10894;SDS011;5500;49.886;8.074;2023-04-15T00:51:07;5.47;;;2.30;;
10894;SDS011;5500;49.886;8.074;2023-04-15T00:53:35;4.13;;;1.83;;
10894;SDS011;5500;49.886;8.074;2023-04-15T00:56:03;3.97;;;1.90;;
10894;SDS011;5500;49.886;8.074;2023-04-15T00:58:33;4.60;;;1.80;;
10894;SDS011;5500;49.886;8.074;2023-04-15T01:01:02;3.10;;;1.50;;
10894;SDS011;5500;49.886;8.074;2023-04-15T01:03:30;3.47;;;1.70;;
10894;SDS011;5500;49.886;8.074;2023-04-15T01:05:58;3.83;;;1.47;;
10894;SDS011;5500;49.886;8.074;2023-04-15T01:08:29;4.57;;;2.17;;
10894;SDS011;5500;49.886;8.074;2023-04-15T01:10:57;4.20;;;1.70;;
10894;SDS011;5500;49.886;8.074;2023-04-15T01:13:25;3.33;;;1.50;;
10894;SDS011;5500;49.886;8.074;2023-04-15T01:15:54;2.53;;;1.80;;
10894;SDS011;5500;49.886;8.074;2023-04-15T01:18:23;3.83;;;1.67;;
10894;SDS011;5500;49.886;8.074;2023-04-15T01:20:51;5.00;;;1.80;;
10894;SDS011;5500;49.886;8.074;2023-04-15T01:23:19;3.13;;;1.83;;
10894;SDS011;5500;49.886;8.074;2023-04-15T01:25:50;5.77;;;1.73;;
10894;SDS011;5500;49.886;8.074;2023-04-15T01:28:17;3.50;;;1.93;;
10894;SDS011;5500;49.886;8.074;2023-04-15T01:30:45;3.03;;;1.37;;
10894;SDS011;5500;49.886;8.074;2023-04-15T01:33:13;3.47;;;2.20;;
10894;SDS011;5500;49.886;8.074;2023-04-15T01:35:41;3.53;;;2.60;;
10894;SDS011;5500;49.886;8.074;2023-04-15T01:38:09;3.83;;;2.60;;
10894;SDS011;5500;49.886;8.074;2023-04-15T01:40:38;4.00;;;2.60;;
10894;SDS011;5500;49.886;8.074;2023-04-15T01:43:08;3.33;;;2.03;;
10894;SDS011;5500;49.886;8.074;2023-04-15T01:45:35;7.00;;;2.10;;
10894;SDS011;5500;49.886;8.074;2023-04-15T01:48:03;4.13;;;2.10;;
10894;SDS011;5500;49.886;8.074;2023-04-15T01:50:32;4.00;;;1.93;;
10894;SDS011;5500;49.886;8.074;2023-04-15T01:53:01;3.70;;;1.67;;
10894;SDS011;5500;49.886;8.074;2023-04-15T01:55:29;3.90;;;1.83;;
10894;SDS011;5500;49.886;8.074;2023-04-15T01:57:57;3.63;;;2.37;;
10894;SDS011;5500;49.886;8.074;2023-04-15T02:00:26;3.43;;;1.80;;
10894;SDS011;5500;49.886;8.074;2023-04-15T02:02:54;5.37;;;2.43;;
10894;SDS011;5500;49.886;8.074;2023-04-15T02:05:22;2.87;;;1.53;;
10894;SDS011;5500;49.886;8.074;2023-04-15T02:07:50;4.40;;;1.87;;
10894;SDS011;5500;49.886;8.074;2023-04-15T02:10:19;5.00;;;2.13;;
10894;SDS011;5500;49.886;8.074;2023-04-15T02:12:46;6.43;;;2.10;;
10894;SDS011;5500;49.886;8.074;2023-04-15T02:15:14;4.87;;;2.53;;
10894;SDS011;5500;49.886;8.074;2023-04-15T02:17:44;3.13;;;2.20;;
10894;SDS011;5500;49.886;8.074;2023-04-15T02:20:16;5.67;;;2.30;;
10894;SDS011;5500;49.886;8.074;2023-04-15T02:22:46;2.57;;;1.90;;
10894;SDS011;5500;49.886;8.074;2023-04-15T02:25:14;3.90;;;2.10;;
10894;SDS011;5500;49.886;8.074;2023-04-15T02:27:43;5.07;;;2.40;;
10894;SDS011;5500;49.886;8.074;2023-04-15T02:30:11;4.10;;;2.13;;
10894;SDS011;5500;49.886;8.074;2023-04-15T02:32:39;12.67;;;2.80;;
10894;SDS011;5500;49.886;8.074;2023-04-15T02:35:10;3.90;;;2.47;;
10894;SDS011;5500;49.886;8.074;2023-04-15T02:37:38;5.23;;;2.37;;
10894;SDS011;5500;49.886;8.074;2023-04-15T02:40:09;4.83;;;2.20;;
10894;SDS011;5500;49.886;8.074;2023-04-15T02:42:38;4.00;;;1.80;;
10894;SDS011;5500;49.886;8.074;2023-04-15T02:45:06;6.50;;;2.20;;
10894;SDS011;5500;49.886;8.074;2023-04-15T02:47:35;4.10;;;1.80;;
10894;SDS011;5500;49.886;8.074;2023-04-15T02:50:03;2.60;;;1.83;;
10894;SDS011;5500;49.886;8.074;2023-04-15T02:52:33;3.33;;;1.60;;
10894;SDS011;5500;49.886;8.074;2023-04-15T02:55:01;2.50;;;1.67;;
10894;SDS011;5500;49.886;8.074;2023-04-15T02:57:30;3.37;;;2.10;;
10894;SDS011;5500;49.886;8.074;2023-04-15T02:59:58;4.40;;;1.73;;
10894;SDS011;5500;49.886;8.074;2023-04-15T03:02:25;3.67;;;1.77;;
10894;SDS011;5500;49.886;8.074;2023-04-15T03:04:53;4.80;;;2.10;;
10894;SDS011;5500;49.886;8.074;2023-04-15T03:07:21;6.07;;;2.57;;
10894;SDS011;5500;49.886;8.074;2023-04-15T03:09:50;3.57;;;1.70;;
10894;SDS011;5500;49.886;8.074;2023-04-15T03:12:18;4.80;;;2.00;;
10894;SDS011;5500;49.886;8.074;2023-04-15T03:14:46;3.43;;;1.87;;
10894;SDS011;5500;49.886;8.074;2023-04-15T03:17:13;3.20;;;1.53;;
10894;SDS011;5500;49.886;8.074;2023-04-15T03:19:42;6.67;;;1.80;;
10894;SDS011;5500;49.886;8.074;2023-04-15T03:22:10;5.17;;;2.00;;
10894;SDS011;5500;49.886;8.074;2023-04-15T03:24:38;3.00;;;2.17;;
10894;SDS011;5500;49.886;8.074;2023-04-15T03:27:07;5.47;;;2.07;;
10894;SDS011;5500;49.886;8.074;2023-04-15T03:29:35;3.73;;;1.70;;
10894;SDS011;5500;49.886;8.074;2023-04-15T03:32:02;3.43;;;2.10;;
10894;SDS011;5500;49.886;8.074;2023-04-15T03:34:30;5.17;;;1.80;;
10894;SDS011;5500;49.886;8.074;2023-04-15T03:36:58;5.43;;;1.70;;
10894;SDS011;5500;49.886;8.074;2023-04-15T03:39:26;5.13;;;1.83;;
10894;SDS011;5500;49.886;8.074;2023-04-15T03:41:53;6.67;;;2.27;;
10894;SDS011;5500;49.886;8.074;2023-04-15T03:44:23;5.83;;;1.83;;
10894;SDS011;5500;49.886;8.074;2023-04-15T03:46:50;6.17;;;1.77;;
10894;SDS011;5500;49.886;8.074;2023-04-15T03:49:18;3.30;;;1.97;;
10894;SDS011;5500;49.886;8.074;2023-04-15T03:51:48;3.23;;;1.80;;
10894;SDS011;5500;49.886;8.074;2023-04-15T03:54:15;5.73;;;2.43;;
10894;SDS011;5500;49.886;8.074;2023-04-15T03:56:43;5.03;;;1.70;;
10894;SDS011;5500;49.886;8.074;2023-04-15T03:59:11;5.13;;;2.00;;
10894;SDS011;5500;49.886;8.074;2023-04-15T04:01:40;4.57;;;2.20;;
10894;SDS011;5500;49.886;8.074;2023-04-15T04:04:08;4.90;;;2.33;;
10894;SDS011;5500;49.886;8.074;2023-04-15T04:06:36;5.17;;;2.10;;
10894;SDS011;5500;49.886;8.074;2023-04-15T04:09:03;3.63;;;1.97;;
10894;SDS011;5500;49.886;8.074;2023-04-15T04:11:31;3.43;;;2.27;;
10894;SDS011;5500;49.886;8.074;2023-04-15T04:13:59;7.43;;;2.27;;
10894;SDS011;5500;49.886;8.074;2023-04-15T04:16:27;3.27;;;1.77;;
10894;SDS011;5500;49.886;8.074;2023-04-15T04:18:56;9.03;;;2.43;;
10894;SDS011;5500;49.886;8.074;2023-04-15T04:21:24;3.10;;;1.80;;
10894;SDS011;5500;49.886;8.074;2023-04-15T04:23:52;5.17;;;2.07;;
10894;SDS011;5500;49.886;8.074;2023-04-15T04:26:20;3.83;;;2.10;;
10894;SDS011;5500;49.886;8.074;2023-04-15T04:28:48;4.60;;;2.23;;
10894;SDS011;5500;49.886;8.074;2023-04-15T04:31:15;4.90;;;2.33;;
10894;SDS011;5500;49.886;8.074;2023-04-15T04:33:43;4.53;;;2.63;;
10894;SDS011;5500;49.886;8.074;2023-04-15T04:36:13;5.77;;;3.10;;
10894;SDS011;5500;49.886;8.074;2023-04-15T04:38:40;6.87;;;2.97;;
10894;SDS011;5500;49.886;8.074;2023-04-15T04:41:08;5.07;;;3.00;;
10894;SDS011;5500;49.886;8.074;2023-04-15T04:43:36;5.53;;;2.60;;
10894;SDS011;5500;49.886;8.074;2023-04-15T04:46:04;6.07;;;3.03;;
10894;SDS011;5500;49.886;8.074;2023-04-15T04:48:31;4.37;;;2.50;;
10894;SDS011;5500;49.886;8.074;2023-04-15T04:50:59;4.30;;;2.87;;
10894;SDS011;5500;49.886;8.074;2023-04-15T04:53:28;5.63;;;2.70;;
10894;SDS011;5500;49.886;8.074;2023-04-15T04:55:56;4.40;;;2.47;;
10894;SDS011;5500;49.886;8.074;2023-04-15T04:58:23;4.83;;;2.50;;
10894;SDS011;5500;49.886;8.074;2023-04-15T05:00:51;6.73;;;2.70;;
10894;SDS011;5500;49.886;8.074;2023-04-15T05:03:19;5.10;;;2.50;;
10894;SDS011;5500;49.886;8.074;2023-04-15T05:05:47;5.23;;;2.60;;
10894;SDS011;5500;49.886;8.074;2023-04-15T05:08:15;3.87;;;2.20;;
10894;SDS011;5500;49.886;8.074;2023-04-15T05:10:46;4.63;;;2.40;;
10894;SDS011;5500;49.886;8.074;2023-04-15T05:13:13;3.40;;;2.47;;
10894;SDS011;5500;49.886;8.074;2023-04-15T05:15:41;6.10;;;2.60;;
10894;SDS011;5500;49.886;8.074;2023-04-15T05:18:10;4.40;;;2.27;;
10894;SDS011;5500;49.886;8.074;2023-04-15T05:20:37;3.77;;;2.53;;
10894;SDS011;5500;49.886;8.074;2023-04-15T05:23:05;4.13;;;2.50;;
10894;SDS011;5500;49.886;8.074;2023-04-15T05:25:33;4.77;;;2.23;;
10894;SDS011;5500;49.886;8.074;2023-04-15T05:28:02;5.20;;;2.40;;
10894;SDS011;5500;49.886;8.074;2023-04-15T05:30:29;7.50;;;2.50;;
10894;SDS011;5500;49.886;8.074;2023-04-15T05:32:57;5.60;;;2.23;;
10894;SDS011;5500;49.886;8.074;2023-04-15T05:35:25;6.33;;;2.60;;
10894;SDS011;5500;49.886;8.074;2023-04-15T05:37:53;5.13;;;2.07;;
10894;SDS011;5500;49.886;8.074;2023-04-15T05:40:21;3.03;;;1.83;;
10894;SDS011;5500;49.886;8.074;2023-04-15T05:42:48;4.43;;;1.83;;
10894;SDS011;5500;49.886;8.074;2023-04-15T05:45:17;3.47;;;2.07;;
10894;SDS011;5500;49.886;8.074;2023-04-15T05:47:45;3.03;;;1.93;;
10894;SDS011;5500;49.886;8.074;2023-04-15T05:50:15;4.17;;;2.20;;
10894;SDS011;5500;49.886;8.074;2023-04-15T05:52:43;3.53;;;1.80;;
10894;SDS011;5500;49.886;8.074;2023-04-15T05:55:11;3.87;;;1.70;;
10894;SDS011;5500;49.886;8.074;2023-04-15T05:57:39;6.43;;;2.47;;
10894;SDS011;5500;49.886;8.074;2023-04-15T06:00:07;5.70;;;2.13;;
10894;SDS011;5500;49.886;8.074;2023-04-15T06:02:37;2.70;;;1.87;;
10894;SDS011;5500;49.886;8.074;2023-04-15T06:05:05;4.70;;;2.43;;
10894;SDS011;5500;49.886;8.074;2023-04-15T06:07:35;4.27;;;2.00;;
10894;SDS011;5500;49.886;8.074;2023-04-15T06:10:03;3.77;;;2.10;;
10894;SDS011;5500;49.886;8.074;2023-04-15T06:12:31;3.53;;;2.10;;
10894;SDS011;5500;49.886;8.074;2023-04-15T06:14:59;3.90;;;2.10;;
10894;SDS011;5500;49.886;8.074;2023-04-15T06:17:26;7.97;;;2.17;;
10894;SDS011;5500;49.886;8.074;2023-04-15T06:19:56;3.57;;;2.03;;
10894;SDS011;5500;49.886;8.074;2023-04-15T06:22:24;2.53;;;1.83;;
10894;SDS011;5500;49.886;8.074;2023-04-15T06:24:51;2.90;;;1.80;;
10894;SDS011;5500;49.886;8.074;2023-04-15T06:27:19;4.23;;;2.13;;
10894;SDS011;5500;49.886;8.074;2023-04-15T06:29:48;4.63;;;2.70;;
10894;SDS011;5500;49.886;8.074;2023-04-15T06:32:15;5.97;;;2.77;;
10894;SDS011;5500;49.886;8.074;2023-04-15T06:34:43;5.93;;;2.33;;
10894;SDS011;5500;49.886;8.074;2023-04-15T06:37:12;5.00;;;2.67;;
10894;SDS011;5500;49.886;8.074;2023-04-15T06:39:41;4.23;;;2.40;;
10894;SDS011;5500;49.886;8.074;2023-04-15T06:42:09;2.33;;;2.10;;
10894;SDS011;5500;49.886;8.074;2023-04-15T06:44:37;4.47;;;2.50;;
10894;SDS011;5500;49.886;8.074;2023-04-15T06:47:05;4.07;;;2.40;;
10894;SDS011;5500;49.886;8.074;2023-04-15T06:49:34;4.87;;;2.87;;
10894;SDS011;5500;49.886;8.074;2023-04-15T06:52:02;3.60;;;2.47;;
10894;SDS011;5500;49.886;8.074;2023-04-15T06:54:31;4.53;;;2.63;;
10894;SDS011;5500;49.886;8.074;2023-04-15T06:56:59;7.00;;;2.97;;
10894;SDS011;5500;49.886;8.074;2023-04-15T06:59:27;3.47;;;2.90;;
10894;SDS011;5500;49.886;8.074;2023-04-15T07:01:54;5.53;;;2.80;;
10894;SDS011;5500;49.886;8.074;2023-04-15T07:04:22;3.47;;;2.90;;
10894;SDS011;5500;49.886;8.074;2023-04-15T07:06:50;3.37;;;2.50;;
10894;SDS011;5500;49.886;8.074;2023-04-15T07:09:19;3.90;;;2.70;;
10894;SDS011;5500;49.886;8.074;2023-04-15T07:11:48;5.43;;;2.47;;
10894;SDS011;5500;49.886;8.074;2023-04-15T07:14:16;5.23;;;2.93;;
10894;SDS011;5500;49.886;8.074;2023-04-15T07:16:44;5.87;;;2.57;;
10894;SDS011;5500;49.886;8.074;2023-04-15T07:19:12;3.93;;;2.37;;
10894;SDS011;5500;49.886;8.074;2023-04-15T07:21:40;5.10;;;2.40;;
10894;SDS011;5500;49.886;8.074;2023-04-15T07:24:08;5.67;;;2.70;;
10894;SDS011;5500;49.886;8.074;2023-04-15T07:26:36;7.07;;;2.50;;
10894;SDS011;5500;49.886;8.074;2023-04-15T07:29:05;6.17;;;2.97;;
10894;SDS011;5500;49.886;8.074;2023-04-15T07:31:33;4.63;;;2.57;;
10894;SDS011;5500;49.886;8.074;2023-04-15T07:34:02;7.10;;;4.83;;
10894;SDS011;5500;49.886;8.074;2023-04-15T07:36:29;11.40;;;6.40;;
10894;SDS011;5500;49.886;8.074;2023-04-15T07:38:57;6.30;;;3.20;;
10894;SDS011;5500;49.886;8.074;2023-04-15T07:41:27;4.93;;;3.47;;
10894;SDS011;5500;49.886;8.074;2023-04-15T07:43:55;9.20;;;3.20;;
10894;SDS011;5500;49.886;8.074;2023-04-15T07:46:24;4.30;;;2.70;;
10894;SDS011;5500;49.886;8.074;2023-04-15T07:48:52;6.17;;;3.13;;
10894;SDS011;5500;49.886;8.074;2023-04-15T07:51:20;3.90;;;3.37;;
10894;SDS011;5500;49.886;8.074;2023-04-15T07:53:47;4.57;;;3.13;;
10894;SDS011;5500;49.886;8.074;2023-04-15T07:56:15;5.60;;;2.90;;
10894;SDS011;5500;49.886;8.074;2023-04-15T07:58:43;7.20;;;2.53;;
10894;SDS011;5500;49.886;8.074;2023-04-15T08:01:11;6.77;;;3.20;;
10894;SDS011;5500;49.886;8.074;2023-04-15T08:03:40;6.77;;;3.20;;
10894;SDS011;5500;49.886;8.074;2023-04-15T08:06:08;5.27;;;3.23;;
10894;SDS011;5500;49.886;8.074;2023-04-15T08:08:36;5.37;;;3.10;;
10894;SDS011;5500;49.886;8.074;2023-04-15T08:11:03;4.90;;;3.47;;
10894;SDS011;5500;49.886;8.074;2023-04-15T08:13:31;4.33;;;2.90;;
10894;SDS011;5500;49.886;8.074;2023-04-15T08:16:16;9.47;;;3.17;;
10894;SDS011;5500;49.886;8.074;2023-04-15T08:18:46;10.27;;;3.47;;
10894;SDS011;5500;49.886;8.074;2023-04-15T08:21:14;5.03;;;3.00;;
10894;SDS011;5500;49.886;8.074;2023-04-15T08:23:43;4.43;;;2.60;;
10894;SDS011;5500;49.886;8.074;2023-04-15T08:26:11;2.43;;;2.17;;
10894;SDS011;5500;49.886;8.074;2023-04-15T08:28:40;4.43;;;2.40;;
10894;SDS011;5500;49.886;8.074;2023-04-15T08:31:08;3.40;;;2.20;;
10894;SDS011;5500;49.886;8.074;2023-04-15T08:33:35;4.73;;;2.60;;
10894;SDS011;5500;49.886;8.074;2023-04-15T08:36:05;7.37;;;3.50;;
10894;SDS011;5500;49.886;8.074;2023-04-15T08:38:33;5.03;;;3.10;;
10894;SDS011;5500;49.886;8.074;2023-04-15T08:41:02;4.80;;;2.73;;
10894;SDS011;5500;49.886;8.074;2023-04-15T08:43:32;3.20;;;2.67;;
10894;SDS011;5500;49.886;8.074;2023-04-15T08:46:00;4.80;;;2.70;;
10894;SDS011;5500;49.886;8.074;2023-04-15T08:48:29;5.43;;;2.90;;
10894;SDS011;5500;49.886;8.074;2023-04-15T08:50:59;7.50;;;5.27;;
10894;SDS011;5500;49.886;8.074;2023-04-15T08:53:29;4.50;;;3.10;;
10894;SDS011;5500;49.886;8.074;2023-04-15T08:55:56;5.77;;;2.80;;
10894;SDS011;5500;49.886;8.074;2023-04-15T08:58:26;4.23;;;2.87;;
10894;SDS011;5500;49.886;8.074;2023-04-15T09:00:55;4.93;;;3.03;;
10894;SDS011;5500;49.886;8.074;2023-04-15T09:03:23;4.53;;;3.17;;
10894;SDS011;5500;49.886;8.074;2023-04-15T09:05:50;5.70;;;3.77;;
10894;SDS011;5500;49.886;8.074;2023-04-15T09:08:18;8.70;;;3.30;;
10894;SDS011;5500;49.886;8.074;2023-04-15T09:10:47;4.33;;;2.70;;
10894;SDS011;5500;49.886;8.074;2023-04-15T09:13:15;6.70;;;2.60;;
10894;SDS011;5500;49.886;8.074;2023-04-15T09:15:42;5.77;;;2.50;;
10894;SDS011;5500;49.886;8.074;2023-04-15T09:18:10;5.33;;;3.27;;
10894;SDS011;5500;49.886;8.074;2023-04-15T09:20:38;4.57;;;2.80;;
10894;SDS011;5500;49.886;8.074;2023-04-15T09:23:13;4.80;;;2.60;;
10894;SDS011;5500;49.886;8.074;2023-04-15T09:25:42;6.47;;;3.17;;
10894;SDS011;5500;49.886;8.074;2023-04-15T09:28:11;3.10;;;2.77;;
10894;SDS011;5500;49.886;8.074;2023-04-15T09:30:41;4.27;;;3.50;;
10894;SDS011;5500;49.886;8.074;2023-04-15T09:33:13;7.30;;;3.07;;
10894;SDS011;5500;49.886;8.074;2023-04-15T09:35:41;6.77;;;2.93;;
10894;SDS011;5500;49.886;8.074;2023-04-15T09:38:08;6.60;;;3.00;;
10894;SDS011;5500;49.886;8.074;2023-04-15T09:40:36;5.17;;;3.10;;
10894;SDS011;5500;49.886;8.074;2023-04-15T09:43:06;4.60;;;2.80;;
10894;SDS011;5500;49.886;8.074;2023-04-15T09:45:35;5.53;;;2.67;;
10894;SDS011;5500;49.886;8.074;2023-04-15T09:48:13;4.77;;;2.77;;
10894;SDS011;5500;49.886;8.074;2023-04-15T09:50:43;5.13;;;2.73;;
10894;SDS011;5500;49.886;8.074;2023-04-15T09:53:14;4.40;;;2.70;;
10894;SDS011;5500;49.886;8.074;2023-04-15T09:55:43;4.03;;;2.67;;
10894;SDS011;5500;49.886;8.074;2023-04-15T09:58:18;4.87;;;2.63;;
10894;SDS011;5500;49.886;8.074;2023-04-15T10:00:48;4.67;;;2.10;;
10894;SDS011;5500;49.886;8.074;2023-04-15T10:03:18;4.53;;;2.20;;
10894;SDS011;5500;49.886;8.074;2023-04-15T10:05:48;4.90;;;2.00;;
10894;SDS011;5500;49.886;8.074;2023-04-15T10:08:17;4.57;;;2.20;;
10894;SDS011;5500;49.886;8.074;2023-04-15T10:10:46;3.03;;;1.73;;
10894;SDS011;5500;49.886;8.074;2023-04-15T10:13:15;3.53;;;2.07;;
10894;SDS011;5500;49.886;8.074;2023-04-15T10:15:44;3.90;;;1.73;;
10894;SDS011;5500;49.886;8.074;2023-04-15T10:18:17;3.27;;;1.60;;
10894;SDS011;5500;49.886;8.074;2023-04-15T10:20:47;2.97;;;1.60;;
10894;SDS011;5500;49.886;8.074;2023-04-15T10:23:15;2.90;;;1.80;;
10894;SDS011;5500;49.886;8.074;2023-04-15T10:25:44;7.00;;;1.70;;
10894;SDS011;5500;49.886;8.074;2023-04-15T10:28:12;2.87;;;1.20;;
10894;SDS011;5500;49.886;8.074;2023-04-15T10:30:42;1.30;;;1.17;;
10894;SDS011;5500;49.886;8.074;2023-04-15T10:33:11;2.77;;;1.50;;
10894;SDS011;5500;49.886;8.074;2023-04-15T10:35:39;3.13;;;1.40;;
10894;SDS011;5500;49.886;8.074;2023-04-15T10:41:12;3.80;;;1.50;;
10894;SDS011;5500;49.886;8.074;2023-04-15T10:43:50;2.20;;;1.30;;
10894;SDS011;5500;49.886;8.074;2023-04-15T10:46:20;1.90;;;1.13;;
10894;SDS011;5500;49.886;8.074;2023-04-15T10:48:52;4.60;;;1.30;;
10894;SDS011;5500;49.886;8.074;2023-04-15T10:51:27;2.67;;;1.40;;
10894;SDS011;5500;49.886;8.074;2023-04-15T10:53:56;3.17;;;1.90;;
10894;SDS011;5500;49.886;8.074;2023-04-15T10:56:27;3.63;;;1.47;;
10894;SDS011;5500;49.886;8.074;2023-04-15T10:58:55;2.23;;;1.37;;
10894;SDS011;5500;49.886;8.074;2023-04-15T11:07:32;3.60;;;1.67;;
10894;SDS011;5500;49.886;8.074;2023-04-15T11:10:12;3.30;;;1.30;;
10894;SDS011;5500;49.886;8.074;2023-04-15T11:13:20;3.53;;;1.43;;
10894;SDS011;5500;49.886;8.074;2023-04-15T11:15:53;4.03;;;1.40;;
10894;SDS011;5500;49.886;8.074;2023-04-15T11:18:24;2.60;;;1.27;;
10894;SDS011;5500;49.886;8.074;2023-04-15T11:20:55;2.27;;;1.13;;
10894;SDS011;5500;49.886;8.074;2023-04-15T11:23:28;2.83;;;1.23;;
10894;SDS011;5500;49.886;8.074;2023-04-15T11:25:57;2.33;;;1.43;;
10894;SDS011;5500;49.886;8.074;2023-04-15T11:28:26;4.83;;;1.53;;
10894;SDS011;5500;49.886;8.074;2023-04-15T11:30:54;2.93;;;1.20;;
10894;SDS011;5500;49.886;8.074;2023-04-15T11:33:22;1.70;;;1.50;;
10894;SDS011;5500;49.886;8.074;2023-04-15T11:35:51;1.70;;;1.20;;
10894;SDS011;5500;49.886;8.074;2023-04-15T11:38:21;2.73;;;1.60;;
10894;SDS011;5500;49.886;8.074;2023-04-15T11:40:49;4.30;;;1.33;;
10894;SDS011;5500;49.886;8.074;2023-04-15T11:43:18;2.73;;;1.27;;
10894;SDS011;5500;49.886;8.074;2023-04-15T11:45:47;3.90;;;1.10;;
10894;SDS011;5500;49.886;8.074;2023-04-15T11:48:18;3.97;;;1.47;;
10894;SDS011;5500;49.886;8.074;2023-04-15T11:50:51;3.30;;;1.50;;
10894;SDS011;5500;49.886;8.074;2023-04-15T11:53:19;1.97;;;1.30;;
10894;SDS011;5500;49.886;8.074;2023-04-15T11:55:49;2.03;;;1.20;;
10894;SDS011;5500;49.886;8.074;2023-04-15T11:58:18;2.10;;;1.10;;
10894;SDS011;5500;49.886;8.074;2023-04-15T12:00:47;2.00;;;1.27;;
10894;SDS011;5500;49.886;8.074;2023-04-15T12:03:21;1.40;;;1.30;;
10894;SDS011;5500;49.886;8.074;2023-04-15T12:06:07;1.40;;;1.30;;
10894;SDS011;5500;49.886;8.074;2023-04-15T12:08:51;1.87;;;1.20;;
10894;SDS011;5500;49.886;8.074;2023-04-15T12:11:27;2.30;;;1.10;;
10894;SDS011;5500;49.886;8.074;2023-04-15T12:13:57;2.60;;;0.90;;
10894;SDS011;5500;49.886;8.074;2023-04-15T12:16:26;0.67;;;0.67;;
10894;SDS011;5500;49.886;8.074;2023-04-15T12:18:55;2.57;;;1.07;;
10894;SDS011;5500;49.886;8.074;2023-04-15T12:21:24;1.03;;;0.87;;
10894;SDS011;5500;49.886;8.074;2023-04-15T12:23:54;0.93;;;0.67;;
10894;SDS011;5500;49.886;8.074;2023-04-15T12:26:28;0.63;;;0.63;;
10894;SDS011;5500;49.886;8.074;2023-04-15T12:28:59;0.77;;;0.60;;
10894;SDS011;5500;49.886;8.074;2023-04-15T12:31:27;0.60;;;0.57;;
10894;SDS011;5500;49.886;8.074;2023-04-15T12:33:55;0.40;;;0.40;;
10894;SDS011;5500;49.886;8.074;2023-04-15T12:36:23;0.87;;;0.63;;
10894;SDS011;5500;49.886;8.074;2023-04-15T12:38:51;0.77;;;0.50;;
10894;SDS011;5500;49.886;8.074;2023-04-15T12:41:19;0.70;;;0.67;;
10894;SDS011;5500;49.886;8.074;2023-04-15T12:43:48;1.80;;;0.70;;
10894;SDS011;5500;49.886;8.074;2023-04-15T12:46:16;0.40;;;0.40;;
10894;SDS011;5500;49.886;8.074;2023-04-15T12:48:45;0.50;;;0.50;;
10894;SDS011;5500;49.886;8.074;2023-04-15T12:51:13;0.50;;;0.47;;
10894;SDS011;5500;49.886;8.074;2023-04-15T12:53:41;0.60;;;0.60;;
10894;SDS011;5500;49.886;8.074;2023-04-15T12:56:09;0.80;;;0.80;;
10894;SDS011;5500;49.886;8.074;2023-04-15T12:58:36;0.60;;;0.60;;
10894;SDS011;5500;49.886;8.074;2023-04-15T13:01:05;0.70;;;0.67;;
10894;SDS011;5500;49.886;8.074;2023-04-15T13:03:33;0.87;;;0.60;;
10894;SDS011;5500;49.886;8.074;2023-04-15T13:06:01;0.90;;;0.70;;
10894;SDS011;5500;49.886;8.074;2023-04-15T13:08:29;0.77;;;0.77;;
10894;SDS011;5500;49.886;8.074;2023-04-15T13:10:57;0.93;;;0.60;;
10894;SDS011;5500;49.886;8.074;2023-04-15T13:13:25;0.50;;;0.50;;
10894;SDS011;5500;49.886;8.074;2023-04-15T13:15:53;0.60;;;0.60;;
10894;SDS011;5500;49.886;8.074;2023-04-15T13:18:23;1.60;;;0.80;;
10894;SDS011;5500;49.886;8.074;2023-04-15T13:20:50;0.73;;;0.73;;
10894;SDS011;5500;49.886;8.074;2023-04-15T13:23:18;0.50;;;0.50;;
10894;SDS011;5500;49.886;8.074;2023-04-15T13:25:46;0.73;;;0.70;;
10894;SDS011;5500;49.886;8.074;2023-04-15T13:28:13;1.60;;;0.93;;
10894;SDS011;5500;49.886;8.074;2023-04-15T13:30:41;0.60;;;0.60;;
10894;SDS011;5500;49.886;8.074;2023-04-15T13:33:09;1.80;;;0.70;;
10894;SDS011;5500;49.886;8.074;2023-04-15T13:35:38;2.40;;;0.80;;
10894;SDS011;5500;49.886;8.074;2023-04-15T13:38:05;1.47;;;0.80;;
10894;SDS011;5500;49.886;8.074;2023-04-15T13:40:33;0.63;;;0.63;;
10894;SDS011;5500;49.886;8.074;2023-04-15T13:43:01;0.73;;;0.73;;
10894;SDS011;5500;49.886;8.074;2023-04-15T13:45:29;1.23;;;0.80;;
10894;SDS011;5500;49.886;8.074;2023-04-15T13:47:56;0.93;;;0.70;;
10894;SDS011;5500;49.886;8.074;2023-04-15T13:50:24;0.57;;;0.57;;
10894;SDS011;5500;49.886;8.074;2023-04-15T13:52:53;0.83;;;0.80;;
10894;SDS011;5500;49.886;8.074;2023-04-15T13:55:21;0.63;;;0.63;;
10894;SDS011;5500;49.886;8.074;2023-04-15T13:57:51;1.50;;;0.70;;
10894;SDS011;5500;49.886;8.074;2023-04-15T14:00:19;1.03;;;0.50;;
10894;SDS011;5500;49.886;8.074;2023-04-15T14:02:47;0.87;;;0.80;;
10894;SDS011;5500;49.886;8.074;2023-04-15T14:05:15;0.77;;;0.77;;
10894;SDS011;5500;49.886;8.074;2023-04-15T14:07:43;1.33;;;0.50;;
10894;SDS011;5500;49.886;8.074;2023-04-15T14:10:12;0.70;;;0.70;;
10894;SDS011;5500;49.886;8.074;2023-04-15T14:12:39;0.80;;;0.80;;
10894;SDS011;5500;49.886;8.074;2023-04-15T14:15:07;1.27;;;0.90;;
10894;SDS011;5500;49.886;8.074;2023-04-15T14:17:35;0.90;;;0.90;;
10894;SDS011;5500;49.886;8.074;2023-04-15T14:20:05;1.40;;;0.90;;
10894;SDS011;5500;49.886;8.074;2023-04-15T14:22:34;0.60;;;0.60;;
10894;SDS011;5500;49.886;8.074;2023-04-15T14:25:02;2.00;;;0.80;;
10894;SDS011;5500;49.886;8.074;2023-04-15T14:27:31;0.80;;;0.70;;
10894;SDS011;5500;49.886;8.074;2023-04-15T14:29:59;1.83;;;0.93;;
10894;SDS011;5500;49.886;8.074;2023-04-15T14:32:26;2.80;;;1.20;;
10894;SDS011;5500;49.886;8.074;2023-04-15T14:34:54;1.00;;;0.90;;
10894;SDS011;5500;49.886;8.074;2023-04-15T14:37:22;1.73;;;1.20;;
10894;SDS011;5500;49.886;8.074;2023-04-15T14:39:50;1.30;;;1.20;;
10894;SDS011;5500;49.886;8.074;2023-04-15T14:42:17;2.03;;;1.20;;
10894;SDS011;5500;49.886;8.074;2023-04-15T14:44:46;0.97;;;0.97;;
10894;SDS011;5500;49.886;8.074;2023-04-15T14:47:14;1.63;;;1.30;;
10894;SDS011;5500;49.886;8.074;2023-04-15T14:49:42;0.90;;;0.90;;
10894;SDS011;5500;49.886;8.074;2023-04-15T14:52:10;1.30;;;1.20;;
10894;SDS011;5500;49.886;8.074;2023-04-15T14:54:38;1.27;;;1.17;;
10894;SDS011;5500;49.886;8.074;2023-04-15T14:57:06;1.27;;;1.17;;
10894;SDS011;5500;49.886;8.074;2023-04-15T14:59:34;1.30;;;1.20;;
10894;SDS011;5500;49.886;8.074;2023-04-15T15:02:03;1.47;;;1.37;;
10894;SDS011;5500;49.886;8.074;2023-04-15T15:04:31;1.87;;;1.50;;
10894;SDS011;5500;49.886;8.074;2023-04-15T15:06:59;1.67;;;1.57;;
10894;SDS011;5500;49.886;8.074;2023-04-15T15:09:27;1.20;;;1.10;;
10894;SDS011;5500;49.886;8.074;2023-04-15T15:11:55;2.13;;;1.70;;
10894;SDS011;5500;49.886;8.074;2023-04-15T15:14:23;1.63;;;1.33;;
10894;SDS011;5500;49.886;8.074;2023-04-15T15:16:51;2.20;;;1.70;;
10894;SDS011;5500;49.886;8.074;2023-04-15T15:19:20;2.47;;;1.93;;